Time;durP1;ratioP1;P1;durP2;ratioP2;P2;SDS_P1;SDS_P2;PMS_P1;PMS_P2;Temp;Humidity;BMP_temperature;BMP_pressure;BME280_temperature;BME280_humidity;BME280_pressure;Samples;Min_cycle;Max_cycle;Signal;HPM_P1;HPM_P2
2023/01/14 00:01:16;;;;;;;6.95;1.67;;;;;;;6.96;85.75;101426.09;6158765;23;20022;-76
2023/01/14 00:03:43;;;;;;;5.90;2.27;;;;;;;6.95;85.84;101425.34;6158131;23;20014;-76
2023/01/14 00:06:12;;;;;;;6.75;2.15;;;;;;;6.94;85.58;101426.47;6158703;23;20065;-76
2023/01/14 00:08:39;;;;;;;13.65;2.00;;;;;;;6.96;85.65;101432.13;6158596;23;20013;-76
2023/01/14 00:11:07;;;;;;;8.55;1.98;;;;;;;6.97;85.49;101430.22;6158572;23;20514;-76
2023/01/14 00:13:36;;;;;;;9.85;1.88;;;;;;;6.97;85.59;101438.16;6158276;23;20025;-76
2023/01/14 00:16:06;;;;;;;14.77;1.98;;;;;;;6.98;85.65;101429.84;6158765;23;20033;-76
2023/01/14 00:18:33;;;;;;;9.38;1.42;;;;;;;7.00;85.52;101427.53;6157304;23;20076;-76
2023/01/14 00:21:07;;;;;;;8.25;1.77;;;;;;;6.98;85.56;101429.84;6158460;23;20398;-76
2023/01/14 00:23:35;;;;;;;13.43;1.92;;;;;;;6.96;85.52;101440.06;6158699;23;20021;-75
2023/01/14 00:26:11;;;;;;;11.93;1.50;;;;;;;6.96;85.64;101445.38;6158673;23;20019;-76
2023/01/14 00:28:38;;;;;;;8.35;1.98;;;;;;;6.95;85.60;101449.16;6158725;23;20021;-76
2023/01/14 00:31:08;;;;;;;5.38;1.77;;;;;;;6.92;85.67;101442.00;6132236;23;20033;-76
2023/01/14 00:33:36;;;;;;;8.85;2.42;;;;;;;6.90;85.62;101440.91;6157894;23;20045;-76
2023/01/14 00:36:05;;;;;;;9.68;2.35;;;;;;;6.88;85.67;101438.66;6131922;23;20022;-76
2023/01/14 00:38:31;;;;;;;14.43;2.30;;;;;;;6.87;85.95;101441.69;6158646;23;20014;-76
2023/01/14 00:41:06;;;;;;;11.60;1.48;;;;;;;6.87;85.66;101439.78;6132021;23;20030;-76
2023/01/14 00:43:34;;;;;;;7.85;2.13;;;;;;;6.86;85.92;101432.25;6158435;23;20093;-76
2023/01/14 00:46:01;;;;;;;11.50;1.92;;;;;;;6.85;85.92;101438.69;6157973;23;20017;-76
2023/01/14 00:48:28;;;;;;;6.93;1.80;;;;;;;6.83;85.92;101441.72;6158577;23;20025;-76
2023/01/14 00:50:55;;;;;;;9.65;1.98;;;;;;;6.82;85.93;101436.84;6158426;23;20049;-76
2023/01/14 00:53:23;;;;;;;6.00;1.65;;;;;;;6.82;86.04;101444.78;6132380;23;20081;-76
2023/01/14 00:55:49;;;;;;;5.25;1.58;;;;;;;6.80;86.06;101439.88;6158405;23;20024;-76
2023/01/14 00:58:16;;;;;;;7.25;1.63;;;;;;;6.76;85.74;101441.84;6159457;23;20065;-76
2023/01/14 01:00:44;;;;;;;15.35;2.67;;;;;;;6.72;86.34;101449.06;6158400;23;20088;-76
2023/01/14 01:03:11;;;;;;;14.57;1.98;;;;;;;6.71;86.18;101449.47;6159045;23;20018;-76
2023/01/14 01:05:39;;;;;;;8.70;1.50;;;;;;;6.68;86.28;101448.34;6159662;23;20046;-76
2023/01/14 01:08:07;;;;;;;11.20;1.90;;;;;;;6.64;86.13;101453.69;6157333;23;20022;-76
2023/01/14 01:10:35;;;;;;;11.68;1.83;;;;;;;6.59;86.15;101443.53;6158306;23;20767;-77
2023/01/14 01:13:03;;;;;;;9.35;1.95;;;;;;;6.55;86.50;101452.63;6131754;23;20022;-77
2023/01/14 01:15:34;;;;;;;7.22;1.48;;;;;;;6.51;86.89;101449.28;6106905;23;20026;-77
2023/01/14 01:18:02;;;;;;;5.78;1.70;;;;;;;6.46;86.94;101450.44;6131666;23;20026;-76
2023/01/14 01:20:30;;;;;;;10.02;1.65;;;;;;;6.41;87.37;101448.22;6158272;23;20022;-76
2023/01/14 01:22:56;;;;;;;15.40;1.80;;;;;;;6.35;87.87;101439.25;6158130;23;20168;-76
2023/01/14 01:25:23;;;;;;;14.00;2.13;;;;;;;6.32;88.29;101442.69;6132548;23;20388;-77
2023/01/14 01:27:50;;;;;;;9.07;1.70;;;;;;;6.27;88.71;101440.47;6158870;23;20344;-76
2023/01/14 01:30:16;;;;;;;11.43;2.25;;;;;;;6.23;89.15;101434.44;6157654;23;20022;-77
2023/01/14 01:32:43;;;;;;;9.27;1.70;;;;;;;6.18;89.75;101434.88;6157662;23;20022;-76
2023/01/14 01:35:10;;;;;;;9.55;2.10;;;;;;;6.15;90.69;101446.97;6159539;23;20022;-76
2023/01/14 01:37:36;;;;;;;12.45;2.00;;;;;;;6.14;90.81;101440.19;6159532;23;20060;-76
2023/01/14 01:40:05;;;;;;;14.75;2.25;;;;;;;6.12;91.31;101442.47;6159519;23;20018;-76
2023/01/14 01:42:34;;;;;;;10.10;2.03;;;;;;;6.10;91.75;101439.47;6157014;23;20049;-76
2023/01/14 01:45:27;;;;;;;12.38;2.20;;;;;;;6.11;92.10;101429.63;6108465;23;20018;-76
2023/01/14 01:48:02;;;;;;;15.75;2.13;;;;;;;6.09;92.78;101431.91;6133674;23;20045;-76
2023/01/14 01:50:29;;;;;;;10.90;2.28;;;;;;;6.07;92.85;101434.19;6132919;23;20085;-76
2023/01/14 01:52:56;;;;;;;12.93;2.55;;;;;;;6.03;93.41;101434.22;6132939;23;20081;-76
2023/01/14 01:55:24;;;;;;;12.10;2.60;;;;;;;6.01;93.45;101439.16;6159664;23;20026;-75
2023/01/14 01:57:55;;;;;;;10.90;2.03;;;;;;;5.99;93.93;101436.19;6158723;23;20018;-76
2023/01/14 02:00:25;;;;;;;16.85;2.63;;;;;;;5.95;94.09;101446.78;6133126;23;20045;-76
2023/01/14 02:03:02;;;;;;;8.43;2.20;;;;;;;5.94;94.37;101442.63;6159124;23;20081;-76
2023/01/14 02:05:29;;;;;;;20.05;2.70;;;;;;;5.97;94.53;101443.75;6159630;23;20046;-76
2023/01/14 02:07:58;;;;;;;13.43;2.90;;;;;;;5.97;94.62;101444.50;6159258;23;20018;-76
2023/01/14 02:10:54;;;;;;;13.50;2.70;;;;;;;5.97;94.58;101454.31;6159596;23;20022;-76
2023/01/14 02:13:48;;;;;;;7.55;2.20;;;;;;;5.94;94.60;101449.81;6131371;23;20448;-76
2023/01/14 02:16:42;;;;;;;11.80;2.78;;;;;;;5.88;94.64;101430.94;6159558;23;20022;-76
2023/01/14 02:19:37;;;;;;;10.15;1.80;;;;;;;5.84;95.12;101424.19;6132407;23;20054;-76
2023/01/14 02:22:22;;;;;;;9.32;1.90;;;;;;;5.80;95.07;101415.53;6157818;23;20030;-76
2023/01/14 02:25:14;;;;;;;15.68;2.60;;;;;;;5.76;95.29;101406.88;6157305;23;20018;-78
2023/01/14 02:27:58;;;;;;;12.95;2.13;;;;;;;5.72;95.51;101400.88;6108173;23;20081;-78
2023/01/14 02:30:54;;;;;;;13.43;2.60;;;;;;;5.68;95.50;101391.09;6133016;23;20555;-78
2023/01/14 02:33:36;;;;;;;14.30;2.70;;;;;;;5.64;95.74;101385.06;6133072;23;20026;-78
2023/01/14 02:36:33;;;;;;;7.45;2.88;;;;;;;5.60;95.94;101371.13;6132794;23;20481;-78
2023/01/14 02:39:11;;;;;;;9.85;1.98;;;;;;;5.55;96.34;101365.53;6157495;23;20018;-78
2023/01/14 02:44:59;;;;;;;15.15;2.20;;;;;;;5.47;96.71;101351.66;6132976;23;20342;-78
2023/01/14 02:47:28;;;;;;;9.07;1.90;;;;;;;5.43;97.04;101358.84;6157118;23;20491;-78
2023/01/14 02:49:59;;;;;;;13.80;2.45;;;;;;;5.39;97.12;101363.38;6157270;23;20018;-78
2023/01/14 02:52:25;;;;;;;11.68;1.90;;;;;;;5.34;97.19;101364.56;6157633;23;20014;-78
2023/01/14 02:54:56;;;;;;;10.02;2.35;;;;;;;5.30;97.62;101363.81;6159237;23;20062;-78
2023/01/14 02:57:36;;;;;;;16.67;2.60;;;;;;;5.27;97.77;101366.47;6132826;23;20025;-78
2023/01/14 03:00:25;;;;;;;21.52;2.03;;;;;;;5.24;97.90;101357.44;6159157;23;20018;-76
2023/01/14 03:03:01;;;;;;;10.05;2.58;;;;;;;5.22;98.04;101354.44;6159039;23;20511;-76
2023/01/14 03:05:27;;;;;;;14.85;2.70;;;;;;;5.19;98.18;101359.78;6159007;23;20029;-76
2023/01/14 03:08:00;;;;;;;17.65;2.60;;;;;;;5.15;98.14;101349.22;6132711;23;20017;-76
2023/01/14 03:10:37;;;;;;;18.70;2.85;;;;;;;5.13;98.19;101348.88;6132955;23;20049;-76
2023/01/14 03:13:16;;;;;;;10.95;2.63;;;;;;;5.10;98.17;101346.25;6158616;23;20014;-76
2023/01/14 03:15:50;;;;;;;11.73;2.08;;;;;;;5.07;98.57;101341.75;6132663;23;20046;-76
2023/01/14 03:18:32;;;;;;;9.98;2.30;;;;;;;5.05;98.41;101338.72;6132703;23;20026;-76
2023/01/14 03:21:11;;;;;;;10.73;2.83;;;;;;;5.00;98.55;101340.63;6157354;23;20527;-76
2023/01/14 03:23:49;;;;;;;15.95;3.00;;;;;;;4.99;98.61;101331.22;6132916;23;20022;-76
2023/01/14 03:26:17;;;;;;;11.27;2.67;;;;;;;4.98;98.74;101326.31;6132706;23;20273;-76
2023/01/14 03:28:50;;;;;;;14.35;2.40;;;;;;;4.98;98.79;101326.31;6133001;23;20340;-76
2023/01/14 03:31:22;;;;;;;10.35;3.17;;;;;;;4.96;98.83;101323.31;6133216;23;20811;-76
2023/01/14 03:33:57;;;;;;;16.88;3.53;;;;;;;4.95;99.01;101317.28;6132409;23;20364;-76
2023/01/14 03:36:29;;;;;;;15.68;2.60;;;;;;;4.95;99.04;101317.28;6158977;23;20018;-76
2023/01/14 03:39:01;;;;;;;12.63;3.22;;;;;;;4.94;98.98;101309.75;6158943;23;20021;-76
2023/01/14 03:44:26;;;;;;;23.00;4.30;;;;;;;4.91;98.97;101297.34;6158878;23;20089;-76
2023/01/14 03:46:54;;;;;;;18.80;3.10;;;;;;;4.89;98.88;101289.81;6159156;23;20053;-76
2023/01/14 03:49:22;;;;;;;13.65;2.92;;;;;;;4.87;98.86;101291.34;6158324;23;20034;-76
2023/01/14 03:52:27;;;;;;;17.85;4.38;;;;;;;4.87;98.94;101288.69;6158252;23;20014;-76
2023/01/14 03:55:14;;;;;;;21.17;3.80;;;;;;;4.85;98.83;101283.81;6123713;23;20029;-76
2023/01/14 03:57:50;;;;;;;15.82;3.30;;;;;;;4.84;99.07;101289.47;6132902;23;20025;-76
2023/01/14 04:00:33;;;;;;;18.27;3.78;;;;;;;4.82;99.25;101281.94;6132894;23;20088;-76
2023/01/14 04:03:03;;;;;;;13.77;3.63;;;;;;;4.81;99.48;101275.16;6132418;23;20077;-77
2023/01/14 04:05:30;;;;;;;17.42;2.97;;;;;;;4.82;99.32;101275.91;6132909;23;20030;-76
2023/01/14 04:08:00;;;;;;;25.10;4.55;;;;;;;4.81;99.66;101274.41;6158704;23;20097;-76
2023/01/14 04:10:27;;;;;;;25.13;3.63;;;;;;;4.80;99.58;101265.03;6157963;23;20018;-76
2023/01/14 04:15:38;;;;;;;20.38;4.30;;;;;;;4.80;99.74;101265.75;6158992;23;20073;-76
2023/01/14 04:18:05;;;;;;;13.73;4.00;;;;;;;4.81;100.00;101261.22;6158572;23;20024;-76
2023/01/14 04:20:31;;;;;;;19.92;3.42;;;;;;;4.79;100.00;101251.09;6132350;23;20076;-76
2023/01/14 04:22:58;;;;;;;18.05;3.95;;;;;;;4.79;100.00;101247.69;6158674;23;20025;-76
2023/01/14 04:25:24;;;;;;;21.30;4.10;;;;;;;4.76;100.00;101233.38;6158444;23;20069;-76
2023/01/14 04:27:51;;;;;;;21.85;3.42;;;;;;;4.76;100.00;101225.47;6158549;23;20018;-76
2023/01/14 04:30:18;;;;;;;17.42;3.80;;;;;;;4.75;100.00;101223.97;6159005;23;20101;-76
2023/01/14 04:32:45;;;;;;;14.15;3.60;;;;;;;4.75;100.00;101221.34;6158893;23;20050;-76
2023/01/14 04:35:12;;;;;;;22.27;4.25;;;;;;;4.75;100.00;101215.31;6158360;23;20018;-76
2023/01/14 04:37:38;;;;;;;19.10;3.70;;;;;;;4.76;100.00;101222.09;6132126;23;20105;-76
2023/01/14 04:40:05;;;;;;;22.45;3.35;;;;;;;4.78;100.00;101222.44;6107175;23;20468;-76
2023/01/14 04:42:31;;;;;;;14.93;3.30;;;;;;;4.78;100.00;101214.53;6158364;23;20018;-76
2023/01/14 04:45:01;;;;;;;19.70;3.33;;;;;;;4.80;100.00;101220.91;6158507;23;20352;-76
2023/01/14 04:47:28;;;;;;;20.77;3.72;;;;;;;4.80;100.00;101215.63;6158448;23;20026;-75
2023/01/14 04:49:56;;;;;;;26.50;3.92;;;;;;;4.80;100.00;101207.00;6158413;23;20014;-76
2023/01/14 04:52:23;;;;;;;19.88;4.00;;;;;;;4.83;100.00;101204.31;6158307;23;20337;-76
2023/01/14 04:54:51;;;;;;;22.40;3.70;;;;;;;4.83;100.00;101199.03;6157916;23;20109;-76
2023/01/14 04:57:18;;;;;;;18.23;3.50;;;;;;;4.85;100.00;101193.38;6159006;23;20056;-76
2023/01/14 04:59:44;;;;;;;23.75;3.92;;;;;;;4.86;100.00;101192.22;6158763;23;20050;-76
2023/01/14 05:02:11;;;;;;;19.05;3.88;;;;;;;4.86;100.00;101171.88;6160161;23;20081;-76
2023/01/14 05:04:38;;;;;;;15.93;3.15;;;;;;;4.88;100.00;101174.88;6160649;23;20021;-76
2023/01/14 05:07:05;;;;;;;12.85;4.28;;;;;;;4.88;100.00;101164.31;6160003;23;20018;-76
2023/01/14 05:09:31;;;;;;;18.15;3.65;;;;;;;4.89;100.00;101155.25;6133729;23;20022;-76
2023/01/14 05:11:58;;;;;;;16.55;3.10;;;;;;;4.91;100.00;101149.59;6133216;23;20022;-76
2023/01/14 05:14:25;;;;;;;22.33;3.58;;;;;;;4.93;100.00;101147.31;6109361;23;20329;-76
2023/01/14 05:16:51;;;;;;;19.17;3.45;;;;;;;4.94;100.00;101148.81;6159742;23;20022;-76
2023/01/14 05:19:21;;;;;;;18.60;2.88;;;;;;;4.95;100.00;101145.78;6160064;23;20026;-76
2023/01/14 05:21:48;;;;;;;16.15;3.00;;;;;;;4.97;100.00;101137.50;6158989;23;20014;-77
2023/01/14 05:24:14;;;;;;;20.20;3.15;;;;;;;4.99;100.00;101129.94;6159673;23;20022;-77
2023/01/14 05:26:41;;;;;;;17.83;3.55;;;;;;;5.01;100.00;101127.66;6108731;23;20018;-77
2023/01/14 05:29:08;;;;;;;26.45;3.22;;;;;;;5.01;100.00;101117.84;6133173;23;20106;-76
2023/01/14 05:31:34;;;;;;;15.60;3.42;;;;;;;5.04;100.00;101118.97;6133455;23;20025;-76
2023/01/14 05:34:03;;;;;;;16.00;2.90;;;;;;;5.03;100.00;101112.94;6157911;23;20041;-77
2023/01/14 05:36:29;;;;;;;20.85;3.45;;;;;;;5.05;100.00;101104.63;6156716;23;20021;-76
2023/01/14 05:38:55;;;;;;;14.43;3.10;;;;;;;5.06;100.00;101097.47;6133522;23;20010;-76
2023/01/14 05:41:22;;;;;;;18.58;3.25;;;;;;;5.07;100.00;101093.69;6159866;23;20014;-77
2023/01/14 05:46:41;;;;;;;13.45;2.65;;;;;;;5.10;100.00;101079.69;6124582;23;20401;-77
2023/01/14 05:49:08;;;;;;;25.13;3.08;;;;;;;5.10;100.00;101080.44;6157654;23;20018;-76
2023/01/14 05:51:35;;;;;;;17.50;3.65;;;;;;;5.10;100.00;101066.50;6158719;23;20018;-76
2023/01/14 05:54:01;;;;;;;19.05;3.08;;;;;;;5.12;100.00;101069.50;6159612;23;20014;-77
2023/01/14 05:56:28;;;;;;;13.25;2.90;;;;;;;5.14;100.00;101056.66;6159250;23;20460;-77
2023/01/14 05:58:54;;;;;;;13.68;3.13;;;;;;;5.15;100.00;101053.63;6133241;23;20084;-77
2023/01/14 06:06:53;;;;;;;17.50;2.92;;;;;;;5.19;100.00;101043.03;6159035;23;20022;-77
2023/01/14 06:09:20;;;;;;;13.30;2.70;;;;;;;5.18;100.00;101021.16;6159785;23;20070;-77
2023/01/14 06:11:50;;;;;;;16.63;2.63;;;;;;;5.20;100.00;101010.94;6158730;23;20021;-78
2023/01/14 06:14:17;;;;;;;17.15;2.78;;;;;;;5.22;100.00;101007.91;6159690;23;20062;-77
2023/01/14 06:16:43;;;;;;;16.48;3.03;;;;;;;5.22;100.00;101000.72;6159386;23;20026;-78
2023/01/14 06:19:14;;;;;;;13.25;2.53;;;;;;;5.25;100.00;100986.00;6158824;23;20337;-77
2023/01/14 06:21:41;;;;;;;17.95;2.63;;;;;;;5.25;100.00;100986.00;6159319;23;20021;-78
2023/01/14 06:24:08;;;;;;;15.27;2.72;;;;;;;5.26;100.00;100975.03;6132888;23;21372;-77
2023/01/14 06:26:36;;;;;;;18.70;2.20;;;;;;;5.29;100.00;100981.44;6159682;23;20026;-77
2023/01/14 06:29:10;;;;;;;14.50;2.92;;;;;;;5.30;100.00;100978.38;6159468;23;20069;-77
2023/01/14 06:31:39;;;;;;;20.60;2.75;;;;;;;5.31;100.00;100961.41;6159195;23;20018;-77
2023/01/14 06:34:06;;;;;;;17.60;3.55;;;;;;;5.34;100.00;100970.44;6158578;23;20479;-77
2023/01/14 06:36:34;;;;;;;22.42;2.72;;;;;;;5.36;100.00;100960.22;6159276;23;20026;-77
2023/01/14 06:39:01;;;;;;;14.10;2.65;;;;;;;5.37;100.00;100953.78;6158959;23;20078;-77
2023/01/14 06:41:28;;;;;;;14.50;2.75;;;;;;;5.38;100.00;100944.72;6132643;23;20022;-77
2023/01/14 06:43:54;;;;;;;13.82;3.00;;;;;;;5.40;100.00;100945.09;6159327;23;20017;-77
2023/01/14 06:46:21;;;;;;;17.90;3.15;;;;;;;5.41;100.00;100941.28;6159590;23;20030;-76
2023/01/14 06:48:48;;;;;;;11.32;2.90;;;;;;;5.44;100.00;100926.56;6158412;23;20021;-77
2023/01/14 06:51:17;;;;;;;12.13;2.60;;;;;;;5.42;100.00;100921.66;6157940;23;20444;-77
2023/01/14 06:53:43;;;;;;;12.75;2.35;;;;;;;5.45;100.00;100918.22;6132988;23;20018;-77
2023/01/14 06:56:13;;;;;;;22.98;4.15;;;;;;;5.46;100.00;100917.09;6158710;23;20022;-76
2023/01/14 06:58:40;;;;;;;15.10;2.58;;;;;;;5.46;100.00;100911.06;6159265;23;20065;-76
2023/01/14 07:01:09;;;;;;;14.68;2.53;;;;;;;5.47;100.00;100905.38;6157659;23;20085;-76
2023/01/14 07:03:37;;;;;;;13.82;3.17;;;;;;;5.47;100.00;100900.09;6159080;23;20022;-79
2023/01/14 07:06:04;;;;;;;13.43;2.67;;;;;;;5.49;100.00;100900.44;6131248;23;20025;-77
2023/01/14 07:08:31;;;;;;;12.32;2.70;;;;;;;5.48;100.00;100888.38;6157888;23;20020;-79
2023/01/14 07:10:57;;;;;;;13.85;2.38;;;;;;;5.50;100.00;100877.44;6157440;23;20491;-78
2023/01/14 07:13:24;;;;;;;14.57;2.40;;;;;;;5.48;100.00;100869.91;6157808;23;20018;-77
2023/01/14 07:15:53;;;;;;;10.10;2.25;;;;;;;5.49;100.00;100860.09;6159580;23;20097;-77
2023/01/14 07:18:20;;;;;;;15.68;2.50;;;;;;;5.48;100.00;100846.16;6159230;23;20819;-77
2023/01/14 07:20:47;;;;;;;16.02;2.97;;;;;;;5.48;100.00;100842.75;6159878;23;20017;-78
2023/01/14 07:23:13;;;;;;;16.50;3.13;;;;;;;5.47;100.00;100831.44;6133338;23;20441;-74
2023/01/14 07:25:40;;;;;;;11.15;3.30;;;;;;;5.45;100.00;100828.47;6159955;23;20103;-77
2023/01/14 07:28:07;;;;;;;10.98;2.58;;;;;;;5.47;100.00;100826.16;6159558;23;20078;-78
2023/01/14 07:30:34;;;;;;;10.73;2.63;;;;;;;5.47;100.00;100804.28;6160083;23;20469;-78
2023/01/14 07:33:00;;;;;;;18.25;2.78;;;;;;;5.47;100.00;100791.09;6159152;23;20433;-79
2023/01/14 07:35:30;;;;;;;11.80;2.55;;;;;;;5.47;100.00;100789.19;6159855;23;20025;-77
2023/01/14 07:37:58;;;;;;;10.35;2.10;;;;;;;5.47;100.00;100783.91;6159591;23;20014;-77
2023/01/14 07:40:26;;;;;;;23.52;3.15;;;;;;;5.48;100.00;100774.09;6160008;23;20018;-78
2023/01/14 07:43:00;;;;;;;12.27;2.17;;;;;;;5.47;100.00;100765.44;6159647;23;20018;-78
2023/01/14 07:45:28;;;;;;;12.13;2.55;;;;;;;5.45;100.00;100751.16;6159917;23;20018;-78
2023/01/14 07:47:56;;;;;;;13.95;3.30;;;;;;;5.45;100.00;100746.63;6108227;23;20460;-77
2023/01/14 07:50:23;;;;;;;15.38;2.83;;;;;;;5.46;100.00;100742.06;6159965;23;20444;-80
2023/01/14 07:52:53;;;;;;;10.63;2.85;;;;;;;5.47;100.00;100739.03;6159626;23;20018;-78
2023/01/14 07:55:20;;;;;;;14.82;3.53;;;;;;;5.46;100.00;100726.97;6159689;23;20081;-76
2023/01/14 07:57:48;;;;;;;12.68;2.97;;;;;;;5.47;100.00;100711.88;6159596;23;20025;-76
2023/01/14 08:00:15;;;;;;;6.70;2.40;;;;;;;5.48;100.00;100705.44;6159801;23;20470;-77
2023/01/14 08:02:41;;;;;;;12.13;2.42;;;;;;;5.48;100.00;100708.09;6158270;23;20511;-77
2023/01/14 08:05:08;;;;;;;13.60;3.10;;;;;;;5.50;100.00;100693.34;6159329;23;20328;-74
2023/01/14 08:07:35;;;;;;;10.25;2.80;;;;;;;5.51;100.00;100679.00;6159360;23;20021;-76
2023/01/14 08:10:02;;;;;;;6.30;2.38;;;;;;;5.53;100.00;100670.66;6158956;23;20014;-75
2023/01/14 08:12:31;;;;;;;11.40;2.78;;;;;;;5.54;100.00;100672.16;6159181;23;20483;-76
2023/01/14 08:14:59;;;;;;;7.60;2.10;;;;;;;5.56;100.00;100654.75;6132333;23;20026;-76
2023/01/14 08:17:26;;;;;;;2.67;1.27;;;;;;;5.57;100.00;100647.56;6158215;23;20022;-76
2023/01/14 08:19:53;;;;;;;7.65;2.33;;;;;;;5.59;100.00;100640.75;6132306;23;20078;-75
2023/01/14 08:22:19;;;;;;;7.65;2.47;;;;;;;5.61;100.00;100621.81;6133001;23;20018;-76
2023/01/14 08:24:46;;;;;;;10.07;2.42;;;;;;;5.63;100.00;100617.63;6133049;23;20029;-76
2023/01/14 08:27:12;;;;;;;7.53;2.28;;;;;;;5.65;100.00;100601.38;6159114;23;20089;-75
2023/01/14 08:29:39;;;;;;;9.25;2.78;;;;;;;5.65;100.00;100601.38;6159299;23;20018;-76
2023/01/14 08:32:05;;;;;;;6.97;2.15;;;;;;;5.67;100.00;100588.50;6132209;23;20018;-76
2023/01/14 08:34:32;;;;;;;9.60;1.60;;;;;;;5.68;100.00;100587.34;6133444;23;20427;-76
2023/01/14 08:36:58;;;;;;;7.15;2.60;;;;;;;5.70;100.00;100583.16;6161972;23;20029;-76
2023/01/14 08:39:25;;;;;;;5.43;2.10;;;;;;;5.73;100.00;100568.38;6162143;23;20014;-76
2023/01/14 08:41:51;;;;;;;3.15;1.85;;;;;;;5.76;100.00;100556.25;6160526;23;20534;-74
2023/01/14 08:44:18;;;;;;;5.80;2.08;;;;;;;5.76;100.00;100549.06;6162264;23;20508;-74
2023/01/14 08:46:45;;;;;;;7.30;3.00;;;;;;;5.78;100.00;100536.19;6136085;23;20058;-74
2023/01/14 08:49:11;;;;;;;3.28;1.73;;;;;;;5.81;100.00;100534.63;6162078;23;20444;-74
2023/01/14 08:51:38;;;;;;;4.85;2.10;;;;;;;5.83;100.00;100527.78;6161369;23;20044;-74
2023/01/14 08:54:05;;;;;;;7.57;2.38;;;;;;;5.86;100.00;100520.94;6162138;23;20448;-74
2023/01/14 08:56:31;;;;;;;6.22;1.88;;;;;;;5.89;100.00;100518.25;6162736;23;20431;-73
2023/01/14 08:58:58;;;;;;;3.00;2.70;;;;;;;5.90;100.00;100503.88;6162200;23;20020;-74
2023/01/14 09:01:24;;;;;;;5.03;2.05;;;;;;;5.92;100.00;100493.66;6162193;23;20018;-74
2023/01/14 09:03:53;;;;;;;2.65;2.42;;;;;;;5.97;100.00;100489.78;6161656;23;20046;-74
2023/01/14 09:06:19;;;;;;;2.58;1.60;;;;;;;5.99;100.00;100490.84;6161766;23;20026;-75
2023/01/14 09:17:12;;;;;;;4.40;2.40;;;;;;;6.12;100.00;100477.69;6160976;23;20103;-75
2023/01/14 09:19:50;;;;;;;8.30;3.03;;;;;;;6.14;100.00;100472.72;6161165;23;20474;-75
2023/01/14 09:22:22;;;;;;;4.13;2.50;;;;;;;6.16;100.00;100461.75;6161628;23;20073;-75
2023/01/14 09:24:50;;;;;;;4.55;2.97;;;;;;;6.18;100.00;100456.78;6161779;23;20061;-75
2023/01/14 09:27:18;;;;;;;4.05;1.85;;;;;;;6.20;100.00;100463.16;6160304;23;20014;-75
2023/01/14 09:29:45;;;;;;;6.55;2.25;;;;;;;6.21;100.00;100443.47;6135080;23;20465;-75
2023/01/14 09:32:13;;;;;;;4.18;2.50;;;;;;;6.25;100.00;100451.34;6161251;23;20021;-75
2023/01/14 09:34:42;;;;;;;3.92;1.98;;;;;;;6.27;100.00;100422.56;6161824;23;20049;-75
2023/01/14 09:37:09;;;;;;;3.47;1.83;;;;;;;6.29;100.00;100423.66;6135054;23;20021;-74
2023/01/14 09:39:35;;;;;;;4.03;1.90;;;;;;;6.31;100.00;100413.41;6162072;23;20014;-75
2023/01/14 09:42:11;;;;;;;2.92;2.08;;;;;;;6.34;100.00;100406.53;6161683;23;20014;-75
2023/01/14 09:44:41;;;;;;;4.47;2.08;;;;;;;6.35;100.00;100398.19;6161716;23;20029;-76
2023/01/14 09:47:12;;;;;;;2.72;1.67;;;;;;;6.36;100.00;100388.34;6160111;23;20653;-75
2023/01/14 09:49:40;;;;;;;1.90;1.25;;;;;;;6.40;100.00;100396.19;6159722;23;20468;-76
2023/01/14 09:52:36;;;;;;;4.32;1.15;;;;;;;6.42;100.00;100381.38;6158958;23;20018;-75
2023/01/14 09:55:05;;;;;;;2.53;1.80;;;;;;;6.46;100.00;100376.72;6159465;23;20081;-75
2023/01/14 09:57:48;;;;;;;5.75;1.85;;;;;;;6.47;100.00;100367.63;6159227;23;20025;-75
2023/01/14 10:00:39;;;;;;;5.15;2.03;;;;;;;6.48;100.00;100358.53;6160334;23;20036;-76
2023/01/14 10:03:33;;;;;;;3.58;1.60;;;;;;;6.50;100.00;100348.28;6159816;23;20010;-75
2023/01/14 10:06:07;;;;;;;3.78;1.98;;;;;;;6.53;100.00;100338.78;6132620;23;20085;-76
2023/01/14 10:08:41;;;;;;;1.88;1.67;;;;;;;6.54;100.00;100325.13;6160114;23;20018;-76
2023/01/14 10:11:09;;;;;;;1.58;1.40;;;;;;;6.55;100.00;100320.59;6133628;23;20018;-76
2023/01/14 10:13:49;;;;;;;3.42;1.60;;;;;;;6.57;100.00;100316.34;6159218;23;20022;-75
2023/01/14 10:16:21;;;;;;;7.80;1.60;;;;;;;6.57;100.00;100281.97;6160294;23;20026;-75
2023/01/14 10:18:56;;;;;;;6.00;1.70;;;;;;;6.60;100.00;100275.84;6159636;23;20492;-75
2023/01/14 10:21:46;;;;;;;3.20;1.98;;;;;;;6.64;100.00;100267.81;6133855;23;20020;-76
2023/01/14 10:24:18;;;;;;;7.22;1.80;;;;;;;6.66;100.00;100252.25;6126913;23;20397;-75
2023/01/14 10:26:48;;;;;;;3.88;1.80;;;;;;;6.70;100.00;100244.97;6159436;23;20081;-75
2023/01/14 10:29:18;;;;;;;2.90;1.13;;;;;;;6.71;100.00;100233.22;6160114;23;20018;-75
2023/01/14 10:31:59;;;;;;;5.00;1.80;;;;;;;6.74;100.00;100215.75;6160162;23;20097;-75
2023/01/14 10:34:37;;;;;;;;;;;;;;;6.75;100.00;100206.66;6160241;23;20041;-76
2023/01/14 10:37:03;;;;;;;3.10;1.30;;;;;;;6.77;100.00;100191.84;6159477;23;20351;-75
2023/01/14 10:39:30;;;;;;;5.63;1.55;;;;;;;6.80;100.00;100180.38;6159776;23;20025;-77
2023/01/14 10:42:00;;;;;;;8.75;4.45;;;;;;;6.83;100.00;100166.28;6159155;23;20508;-75
2023/01/14 10:44:27;;;;;;;3.00;1.65;;;;;;;6.86;100.00;100164.69;6158862;23;20021;-75
2023/01/14 10:46:57;;;;;;;3.85;1.90;;;;;;;6.88;100.00;100163.13;6159328;23;20026;-76
2023/01/14 10:49:39;;;;;;;8.10;1.30;;;;;;;6.91;100.00;100151.69;6133511;23;20105;-76
2023/01/14 10:52:20;;;;;;;3.22;1.38;;;;;;;6.94;100.00;100129.66;6158989;23;20452;-76
2023/01/14 10:55:05;;;;;;;5.10;1.42;;;;;;;6.98;100.00;100117.03;6158883;23;20085;-74
2023/01/14 10:57:34;;;;;;;3.30;1.52;;;;;;;7.01;100.00;100102.22;6133329;23;20029;-75
2023/01/14 11:00:03;;;;;;;3.80;1.65;;;;;;;7.05;100.00;100104.75;6133210;23;20018;-75
2023/01/14 11:02:37;;;;;;;3.25;1.40;;;;;;;7.05;100.00;100091.50;6159872;23;20014;-76
2023/01/14 11:05:24;;;;;;;4.38;1.45;;;;;;;7.10;100.00;100077.72;6159184;23;20487;-74
2023/01/14 11:07:53;;;;;;;5.22;1.05;;;;;;;7.13;100.00;100071.56;6157797;23;20075;-75
2023/01/14 11:10:26;;;;;;;2.63;1.45;;;;;;;7.15;100.00;100059.38;6159400;23;20478;-76
2023/01/14 11:13:12;;;;;;;4.80;1.30;;;;;;;7.20;100.00;100058.81;6159113;23;20014;-75
2023/01/14 11:15:41;;;;;;;3.95;1.38;;;;;;;7.25;100.00;100047.66;6159412;23;20018;-76
2023/01/14 11:18:19;;;;;;;3.17;1.20;;;;;;;7.27;100.00;100050.63;6159866;23;20026;-75
2023/01/14 11:21:04;;;;;;;4.40;1.30;;;;;;;7.29;100.00;100037.69;6160287;23;20105;-76
2023/01/14 11:23:36;;;;;;;1.65;1.00;;;;;;;7.34;100.00;100020.50;6159612;23;20353;-75
2023/01/14 11:26:07;;;;;;;5.03;1.05;;;;;;;7.39;100.00;100017.31;6162717;23;20441;-75
2023/01/14 11:28:40;;;;;;;2.97;1.40;;;;;;;7.44;100.00;100005.41;6160096;23;20089;-76
2023/01/14 11:31:08;;;;;;;1.15;1.05;;;;;;;7.46;100.00;100006.44;6159363;23;20024;-76
2023/01/14 11:33:34;;;;;;;3.28;1.00;;;;;;;7.51;100.00;99986.59;6135116;23;20033;-76
2023/01/14 11:36:24;;;;;;;2.53;1.05;;;;;;;7.53;100.00;99992.22;6159850;23;20098;-77
2023/01/14 11:38:56;;;;;;;1.10;0.82;;;;;;;7.55;100.00;99982.66;6160082;23;20030;-76
2023/01/14 11:41:32;;;;;;;2.40;1.00;;;;;;;7.60;100.00;99976.03;6109003;23;20105;-77
2023/01/14 11:44:00;;;;;;;2.22;1.60;;;;;;;7.63;100.00;99973.25;6159340;23;20043;-75
2023/01/14 11:46:27;;;;;;;1.70;1.40;;;;;;;7.65;100.00;99973.53;6158201;23;20042;-77
2023/01/14 11:48:59;;;;;;;1.33;1.23;;;;;;;7.70;100.00;99959.72;6132830;23;20022;-77
2023/01/14 11:51:27;;;;;;;3.20;1.60;;;;;;;7.73;100.00;99944.88;6159787;23;20014;-78
2023/01/14 11:53:55;;;;;;;1.38;1.17;;;;;;;7.78;100.00;99931.03;6159196;23;20045;-76
2023/01/14 11:56:34;;;;;;;1.33;1.02;;;;;;;7.82;100.00;99952.09;6160169;23;20483;-77
2023/01/14 11:59:15;;;;;;;1.60;0.90;;;;;;;7.85;100.00;99948.56;6159456;23;20026;-73
2023/01/14 12:01:50;;;;;;;1.20;1.10;;;;;;;7.91;100.00;99913.13;6159860;23;20050;-77
2023/01/14 12:04:20;;;;;;;1.55;1.38;;;;;;;7.96;100.00;99906.50;6159816;23;20673;-75
2023/01/14 12:06:54;;;;;;;1.65;1.02;;;;;;;7.98;100.00;99896.19;6159572;23;20014;-75